Accueil
METAR-TAF:

METAR-TAF

Aéroports :

Aéroport de Kangiqsualujjuaq

Kangiqsualujjuaq, Québec, Canada

latitude: 58-43N, longitude: 065-59W, altitude: 60 m

Observation

Le bulletin a été fait il y a 4 heures et 20 minutes, à 22:00 UTC
Vent 16 kt de sud/sud-est avec des rafales jusqu'à 25 kt
Température -14°C
Humidité 78%
Pression 1013 hPa
Visibilité: 24.1 km
Quelques nuages à une hauteur de 1800 ft
Nuages fragmentés à une hauteur de 2100 ft
Ciel couvert à une hauteur de 2500 ft
Chasse-neige basse

METAR: CYLU 202200Z 15016G25KT 15SM DRSN FEW018 BKN021 OVC025 M14/M17 A2991 RMK SC2SC3SC3 LAST STFD OBS/NEXT 211300UTC SLP138

Heure: 21:20 (02:20 UTC)


TAF: absent

Observations et prévisions météorologiques de plus de 4000 aéroports (messages METAR et TAF).

Les stations disponibles sont représentées par des disques jaunes et rouges sur la carte.

Passer la souris dessus pour voir le nom de la station.

Cliquer dessus pour voir les observations et prévisions météorologiques.

Pour changer de carte: cliquez sur les boutons verts avec une croix noire pour zoomer, sur le bouton vert avec un tiret pour effectuer un zoom arrière, ou sur les flèches vertes pour les cartes adjacentes.


METAR-TAF: